sensor_id;sensor_type;location;lat;lon;timestamp;temperature;humidity
78704;SHT31;68034;51.966;5.676;2023-05-29T00:00:05;16.8;53.6
78704;SHT31;68034;51.966;5.676;2023-05-29T00:02:38;16.8;53.9
78704;SHT31;68034;51.966;5.676;2023-05-29T00:05:11;16.7;54.2
78704;SHT31;68034;51.966;5.676;2023-05-29T00:07:43;16.6;54.1
78704;SHT31;68034;51.966;5.676;2023-05-29T00:10:13;16.6;54.5
78704;SHT31;68034;51.966;5.676;2023-05-29T00:12:42;16.5;54.7
78704;SHT31;68034;51.966;5.676;2023-05-29T00:15:11;16.5;54.8
78704;SHT31;68034;51.966;5.676;2023-05-29T00:17:40;16.4;54.9
78704;SHT31;68034;51.966;5.676;2023-05-29T00:20:14;16.4;55.2
78704;SHT31;68034;51.966;5.676;2023-05-29T00:22:44;16.3;55.3
78704;SHT31;68034;51.966;5.676;2023-05-29T00:25:14;16.3;55.5
78704;SHT31;68034;51.966;5.676;2023-05-29T00:27:45;16.2;55.5
78704;SHT31;68034;51.966;5.676;2023-05-29T00:30:19;16.2;55.3
78704;SHT31;68034;51.966;5.676;2023-05-29T00:32:48;16.1;55.9
78704;SHT31;68034;51.966;5.676;2023-05-29T00:35:20;16.1;56.0
78704;SHT31;68034;51.966;5.676;2023-05-29T00:37:49;16.1;56.0
78704;SHT31;68034;51.966;5.676;2023-05-29T00:40:22;16.0;56.3
78704;SHT31;68034;51.966;5.676;2023-05-29T00:42:53;16.0;56.1
78704;SHT31;68034;51.966;5.676;2023-05-29T00:45:21;16.0;56.1
78704;SHT31;68034;51.966;5.676;2023-05-29T00:47:54;16.0;56.4
78704;SHT31;68034;51.966;5.676;2023-05-29T00:50:24;16.0;56.0
78704;SHT31;68034;51.966;5.676;2023-05-29T00:53:01;15.9;55.9
78704;SHT31;68034;51.966;5.676;2023-05-29T00:55:31;15.9;55.9
78704;SHT31;68034;51.966;5.676;2023-05-29T00:58:00;15.9;55.6
78704;SHT31;68034;51.966;5.676;2023-05-29T01:00:29;15.9;55.8
78704;SHT31;68034;51.966;5.676;2023-05-29T01:03:00;15.9;55.8
78704;SHT31;68034;51.966;5.676;2023-05-29T01:05:33;15.8;55.7
78704;SHT31;68034;51.966;5.676;2023-05-29T01:08:02;15.8;55.7
78704;SHT31;68034;51.966;5.676;2023-05-29T01:10:34;15.8;55.2
78704;SHT31;68034;51.966;5.676;2023-05-29T01:13:10;15.8;55.3
78704;SHT31;68034;51.966;5.676;2023-05-29T01:15:46;15.7;55.3
78704;SHT31;68034;51.966;5.676;2023-05-29T01:18:34;15.7;55.5
78704;SHT31;68034;51.966;5.676;2023-05-29T01:42:39;15.5;55.9
78704;SHT31;68034;51.966;5.676;2023-05-29T01:45:09;15.4;55.7
78704;SHT31;68034;51.966;5.676;2023-05-29T01:47:41;15.4;55.8
78704;SHT31;68034;51.966;5.676;2023-05-29T01:50:15;15.4;55.9
78704;SHT31;68034;51.966;5.676;2023-05-29T01:52:50;15.3;55.9
78704;SHT31;68034;51.966;5.676;2023-05-29T01:55:19;15.3;56.3
78704;SHT31;68034;51.966;5.676;2023-05-29T01:57:49;15.3;56.3
78704;SHT31;68034;51.966;5.676;2023-05-29T02:00:19;15.2;56.3
78704;SHT31;68034;51.966;5.676;2023-05-29T02:02:48;15.2;56.5
78704;SHT31;68034;51.966;5.676;2023-05-29T02:05:20;15.2;56.7
78704;SHT31;68034;51.966;5.676;2023-05-29T02:07:52;15.1;56.7
78704;SHT31;68034;51.966;5.676;2023-05-29T02:10:23;15.1;56.5
78704;SHT31;68034;51.966;5.676;2023-05-29T02:12:52;15.1;56.6
78704;SHT31;68034;51.966;5.676;2023-05-29T02:15:21;15.0;57.0
78704;SHT31;68034;51.966;5.676;2023-05-29T02:17:50;15.0;56.9
78704;SHT31;68034;51.966;5.676;2023-05-29T02:20:22;15.0;57.0
78704;SHT31;68034;51.966;5.676;2023-05-29T02:22:50;14.9;57.2
78704;SHT31;68034;51.966;5.676;2023-05-29T02:25:19;14.9;57.2
78704;SHT31;68034;51.966;5.676;2023-05-29T02:27:48;14.9;57.5
78704;SHT31;68034;51.966;5.676;2023-05-29T02:30:17;14.8;57.4
78704;SHT31;68034;51.966;5.676;2023-05-29T02:32:46;14.8;57.5
78704;SHT31;68034;51.966;5.676;2023-05-29T02:35:14;14.7;57.8
78704;SHT31;68034;51.966;5.676;2023-05-29T02:37:44;14.7;57.8
78704;SHT31;68034;51.966;5.676;2023-05-29T02:40:13;14.6;58.2
78704;SHT31;68034;51.966;5.676;2023-05-29T02:42:41;14.6;58.1
78704;SHT31;68034;51.966;5.676;2023-05-29T02:45:10;14.6;58.3
78704;SHT31;68034;51.966;5.676;2023-05-29T02:47:41;14.6;58.3
78704;SHT31;68034;51.966;5.676;2023-05-29T02:50:10;14.5;58.3
78704;SHT31;68034;51.966;5.676;2023-05-29T02:52:41;14.5;58.4
78704;SHT31;68034;51.966;5.676;2023-05-29T02:55:10;14.4;58.5
78704;SHT31;68034;51.966;5.676;2023-05-29T02:57:39;14.4;58.9
78704;SHT31;68034;51.966;5.676;2023-05-29T03:00:09;14.3;58.7
78704;SHT31;68034;51.966;5.676;2023-05-29T03:02:41;14.3;59.3
78704;SHT31;68034;51.966;5.676;2023-05-29T03:05:11;14.3;59.1
78704;SHT31;68034;51.966;5.676;2023-05-29T03:07:40;14.2;59.0
78704;SHT31;68034;51.966;5.676;2023-05-29T03:10:16;14.2;59.4
78704;SHT31;68034;51.966;5.676;2023-05-29T03:12:50;14.2;59.3
78704;SHT31;68034;51.966;5.676;2023-05-29T03:15:18;14.1;59.3
78704;SHT31;68034;51.966;5.676;2023-05-29T03:17:47;14.1;59.5
78704;SHT31;68034;51.966;5.676;2023-05-29T03:20:16;14.1;59.2
78704;SHT31;68034;51.966;5.676;2023-05-29T03:22:45;14.1;59.2
78704;SHT31;68034;51.966;5.676;2023-05-29T03:25:14;14.1;59.5
78704;SHT31;68034;51.966;5.676;2023-05-29T03:27:46;14.0;59.1
78704;SHT31;68034;51.966;5.676;2023-05-29T03:30:14;13.9;59.7
78704;SHT31;68034;51.966;5.676;2023-05-29T03:32:45;13.9;59.5
78704;SHT31;68034;51.966;5.676;2023-05-29T03:35:14;13.9;59.7
78704;SHT31;68034;51.966;5.676;2023-05-29T03:37:43;13.8;60.0
78704;SHT31;68034;51.966;5.676;2023-05-29T03:40:12;13.8;60.0
78704;SHT31;68034;51.966;5.676;2023-05-29T03:42:41;13.7;60.1
78704;SHT31;68034;51.966;5.676;2023-05-29T03:45:12;13.7;60.0
78704;SHT31;68034;51.966;5.676;2023-05-29T03:47:41;13.7;60.0
78704;SHT31;68034;51.966;5.676;2023-05-29T03:50:10;13.7;60.3
78704;SHT31;68034;51.966;5.676;2023-05-29T03:52:41;13.7;60.4
78704;SHT31;68034;51.966;5.676;2023-05-29T03:55:10;13.7;60.6
78704;SHT31;68034;51.966;5.676;2023-05-29T03:57:47;13.7;60.4
78704;SHT31;68034;51.966;5.676;2023-05-29T04:00:19;13.7;60.2
78704;SHT31;68034;51.966;5.676;2023-05-29T04:02:50;13.7;60.3
78704;SHT31;68034;51.966;5.676;2023-05-29T04:05:19;13.7;60.0
78704;SHT31;68034;51.966;5.676;2023-05-29T04:07:48;13.7;60.0
78704;SHT31;68034;51.966;5.676;2023-05-29T04:10:17;13.7;59.9
78704;SHT31;68034;51.966;5.676;2023-05-29T04:12:48;13.7;60.2
78704;SHT31;68034;51.966;5.676;2023-05-29T04:15:18;13.7;59.9
78704;SHT31;68034;51.966;5.676;2023-05-29T04:17:48;13.7;59.7
78704;SHT31;68034;51.966;5.676;2023-05-29T04:20:17;13.6;60.0
78704;SHT31;68034;51.966;5.676;2023-05-29T04:22:48;13.6;60.0
78704;SHT31;68034;51.966;5.676;2023-05-29T04:25:18;13.6;60.2
78704;SHT31;68034;51.966;5.676;2023-05-29T04:27:49;13.6;60.3
78704;SHT31;68034;51.966;5.676;2023-05-29T04:30:18;13.6;60.2
78704;SHT31;68034;51.966;5.676;2023-05-29T04:32:49;13.6;60.3
78704;SHT31;68034;51.966;5.676;2023-05-29T04:35:22;13.6;60.3
78704;SHT31;68034;51.966;5.676;2023-05-29T04:37:50;13.5;60.5
78704;SHT31;68034;51.966;5.676;2023-05-29T04:40:24;13.5;60.4
78704;SHT31;68034;51.966;5.676;2023-05-29T04:42:53;13.5;60.4
78704;SHT31;68034;51.966;5.676;2023-05-29T04:45:22;13.5;60.1
78704;SHT31;68034;51.966;5.676;2023-05-29T04:47:52;13.5;60.4
78704;SHT31;68034;51.966;5.676;2023-05-29T04:50:44;13.5;60.4
78704;SHT31;68034;51.966;5.676;2023-05-29T04:53:14;13.5;60.8
78704;SHT31;68034;51.966;5.676;2023-05-29T04:55:43;13.5;61.0
78704;SHT31;68034;51.966;5.676;2023-05-29T04:58:13;13.5;60.8
78704;SHT31;68034;51.966;5.676;2023-05-29T05:00:42;13.5;60.8
78704;SHT31;68034;51.966;5.676;2023-05-29T05:03:14;13.4;60.9
78704;SHT31;68034;51.966;5.676;2023-05-29T05:05:44;13.4;60.4
78704;SHT31;68034;51.966;5.676;2023-05-29T05:08:13;13.4;60.6
78704;SHT31;68034;51.966;5.676;2023-05-29T05:10:42;13.4;60.9
78704;SHT31;68034;51.966;5.676;2023-05-29T05:13:13;13.4;61.2
78704;SHT31;68034;51.966;5.676;2023-05-29T05:15:41;13.4;61.4
78704;SHT31;68034;51.966;5.676;2023-05-29T05:18:10;13.4;61.6
78704;SHT31;68034;51.966;5.676;2023-05-29T05:20:39;13.4;61.1
78704;SHT31;68034;51.966;5.676;2023-05-29T05:23:08;13.4;61.1
78704;SHT31;68034;51.966;5.676;2023-05-29T05:25:38;13.4;61.2
78704;SHT31;68034;51.966;5.676;2023-05-29T05:28:10;13.4;61.0
78704;SHT31;68034;51.966;5.676;2023-05-29T05:30:39;13.4;61.0
78704;SHT31;68034;51.966;5.676;2023-05-29T05:33:10;13.4;61.2
78704;SHT31;68034;51.966;5.676;2023-05-29T05:35:38;13.4;61.2
78704;SHT31;68034;51.966;5.676;2023-05-29T05:38:07;13.4;61.4
78704;SHT31;68034;51.966;5.676;2023-05-29T05:40:36;13.4;61.5
78704;SHT31;68034;51.966;5.676;2023-05-29T05:43:05;13.4;60.9
78704;SHT31;68034;51.966;5.676;2023-05-29T05:45:38;13.5;60.8
78704;SHT31;68034;51.966;5.676;2023-05-29T05:48:08;13.5;60.8
78704;SHT31;68034;51.966;5.676;2023-05-29T05:50:39;13.5;60.7
78704;SHT31;68034;51.966;5.676;2023-05-29T05:53:08;13.6;60.0
78704;SHT31;68034;51.966;5.676;2023-05-29T05:55:37;13.6;59.9
78704;SHT31;68034;51.966;5.676;2023-05-29T05:58:05;13.6;59.1
78704;SHT31;68034;51.966;5.676;2023-05-29T06:00:34;13.6;58.8
78704;SHT31;68034;51.966;5.676;2023-05-29T06:03:03;13.7;59.3
78704;SHT31;68034;51.966;5.676;2023-05-29T06:05:32;13.7;58.3
78704;SHT31;68034;51.966;5.676;2023-05-29T06:08:03;13.7;58.0
78704;SHT31;68034;51.966;5.676;2023-05-29T06:10:32;13.8;58.0
78704;SHT31;68034;51.966;5.676;2023-05-29T06:13:00;13.8;58.5
78704;SHT31;68034;51.966;5.676;2023-05-29T06:15:29;13.8;59.2
78704;SHT31;68034;51.966;5.676;2023-05-29T06:17:58;13.9;57.8
78704;SHT31;68034;51.966;5.676;2023-05-29T06:20:27;13.9;57.9
78704;SHT31;68034;51.966;5.676;2023-05-29T06:22:56;13.9;57.6
78704;SHT31;68034;51.966;5.676;2023-05-29T06:25:26;14.0;57.2
78704;SHT31;68034;51.966;5.676;2023-05-29T06:28:00;14.0;57.2
78704;SHT31;68034;51.966;5.676;2023-05-29T06:30:28;14.1;57.9
78704;SHT31;68034;51.966;5.676;2023-05-29T06:32:59;14.1;57.9
78704;SHT31;68034;51.966;5.676;2023-05-29T06:35:28;14.2;57.0
78704;SHT31;68034;51.966;5.676;2023-05-29T06:37:56;14.2;57.4
78704;SHT31;68034;51.966;5.676;2023-05-29T06:40:25;14.3;56.1
78704;SHT31;68034;51.966;5.676;2023-05-29T06:42:54;14.4;56.1
78704;SHT31;68034;51.966;5.676;2023-05-29T06:45:22;14.4;56.8
78704;SHT31;68034;51.966;5.676;2023-05-29T06:47:53;14.5;56.5
78704;SHT31;68034;51.966;5.676;2023-05-29T06:50:23;14.6;55.5
78704;SHT31;68034;51.966;5.676;2023-05-29T06:52:52;14.6;56.8
78704;SHT31;68034;51.966;5.676;2023-05-29T06:55:21;14.7;56.3
78704;SHT31;68034;51.966;5.676;2023-05-29T06:57:50;14.8;54.9
78704;SHT31;68034;51.966;5.676;2023-05-29T07:00:19;14.8;54.9
78704;SHT31;68034;51.966;5.676;2023-05-29T07:02:50;14.9;54.7
78704;SHT31;68034;51.966;5.676;2023-05-29T07:05:19;15.0;54.7
78704;SHT31;68034;51.966;5.676;2023-05-29T07:07:49;15.1;55.7
78704;SHT31;68034;51.966;5.676;2023-05-29T07:10:20;15.2;55.2
78704;SHT31;68034;51.966;5.676;2023-05-29T07:12:48;15.2;53.6
78704;SHT31;68034;51.966;5.676;2023-05-29T07:15:17;15.3;54.3
78704;SHT31;68034;51.966;5.676;2023-05-29T07:17:48;15.4;54.0
78704;SHT31;68034;51.966;5.676;2023-05-29T07:20:17;15.5;53.7
78704;SHT31;68034;51.966;5.676;2023-05-29T07:22:46;15.5;54.4
78704;SHT31;68034;51.966;5.676;2023-05-29T07:25:15;15.6;53.9
78704;SHT31;68034;51.966;5.676;2023-05-29T07:27:44;15.7;53.3
78704;SHT31;68034;51.966;5.676;2023-05-29T07:30:13;15.7;52.3
78704;SHT31;68034;51.966;5.676;2023-05-29T07:32:42;15.8;52.8
78704;SHT31;68034;51.966;5.676;2023-05-29T07:35:11;15.9;53.1
78704;SHT31;68034;51.966;5.676;2023-05-29T07:37:39;16.0;52.2
78704;SHT31;68034;51.966;5.676;2023-05-29T07:40:08;16.1;52.8
78704;SHT31;68034;51.966;5.676;2023-05-29T07:42:38;16.1;51.3
78704;SHT31;68034;51.966;5.676;2023-05-29T07:45:07;16.2;51.4
78704;SHT31;68034;51.966;5.676;2023-05-29T07:47:37;16.3;52.4
78704;SHT31;68034;51.966;5.676;2023-05-29T07:50:07;16.4;51.4
78704;SHT31;68034;51.966;5.676;2023-05-29T07:52:41;16.5;51.8
78704;SHT31;68034;51.966;5.676;2023-05-29T07:55:10;16.5;51.5
78704;SHT31;68034;51.966;5.676;2023-05-29T07:57:39;16.6;51.0
78704;SHT31;68034;51.966;5.676;2023-05-29T08:00:09;16.7;50.7
78704;SHT31;68034;51.966;5.676;2023-05-29T08:02:39;16.8;50.2
78704;SHT31;68034;51.966;5.676;2023-05-29T08:05:09;16.8;51.4
78704;SHT31;68034;51.966;5.676;2023-05-29T08:07:39;16.9;49.7
78704;SHT31;68034;51.966;5.676;2023-05-29T08:10:10;17.0;50.4
78704;SHT31;68034;51.966;5.676;2023-05-29T08:12:38;17.0;51.0
78704;SHT31;68034;51.966;5.676;2023-05-29T08:15:08;17.1;50.5
78704;SHT31;68034;51.966;5.676;2023-05-29T08:22:03;17.4;49.8
78704;SHT31;68034;51.966;5.676;2023-05-29T08:24:32;17.5;49.9
78704;SHT31;68034;51.966;5.676;2023-05-29T08:27:01;17.5;49.5
78704;SHT31;68034;51.966;5.676;2023-05-29T08:29:30;17.6;49.7
78704;SHT31;68034;51.966;5.676;2023-05-29T08:31:58;17.7;49.7
78704;SHT31;68034;51.966;5.676;2023-05-29T08:34:28;17.8;49.0
78704;SHT31;68034;51.966;5.676;2023-05-29T08:36:57;17.8;48.2
78704;SHT31;68034;51.966;5.676;2023-05-29T08:39:26;17.9;47.2
78704;SHT31;68034;51.966;5.676;2023-05-29T08:41:59;18.0;47.4
78704;SHT31;68034;51.966;5.676;2023-05-29T08:44:31;18.0;47.2
78704;SHT31;68034;51.966;5.676;2023-05-29T08:47:02;18.1;48.4
78704;SHT31;68034;51.966;5.676;2023-05-29T08:49:39;18.2;48.0
78704;SHT31;68034;51.966;5.676;2023-05-29T08:52:13;18.3;47.4
78704;SHT31;68034;51.966;5.676;2023-05-29T08:54:44;18.4;46.7
78704;SHT31;68034;51.966;5.676;2023-05-29T08:57:13;18.5;47.5
78704;SHT31;68034;51.966;5.676;2023-05-29T08:59:44;18.6;48.0
78704;SHT31;68034;51.966;5.676;2023-05-29T09:02:17;18.6;47.3
78704;SHT31;68034;51.966;5.676;2023-05-29T09:04:47;18.7;47.1
78704;SHT31;68034;51.966;5.676;2023-05-29T09:07:17;18.7;46.8
78704;SHT31;68034;51.966;5.676;2023-05-29T09:09:46;18.8;47.0
78704;SHT31;68034;51.966;5.676;2023-05-29T09:12:15;18.9;47.9
78704;SHT31;68034;51.966;5.676;2023-05-29T09:14:45;18.9;46.2
78704;SHT31;68034;51.966;5.676;2023-05-29T09:17:13;19.0;46.8
78704;SHT31;68034;51.966;5.676;2023-05-29T09:19:43;19.1;47.6
78704;SHT31;68034;51.966;5.676;2023-05-29T09:22:14;19.1;47.7
78704;SHT31;68034;51.966;5.676;2023-05-29T09:24:46;19.2;46.9
78704;SHT31;68034;51.966;5.676;2023-05-29T09:27:18;19.3;46.4
78704;SHT31;68034;51.966;5.676;2023-05-29T09:29:47;19.4;46.3
78704;SHT31;68034;51.966;5.676;2023-05-29T09:32:17;19.5;46.0
78704;SHT31;68034;51.966;5.676;2023-05-29T09:34:46;19.5;45.6
78704;SHT31;68034;51.966;5.676;2023-05-29T09:37:15;19.6;45.5
78704;SHT31;68034;51.966;5.676;2023-05-29T09:39:48;19.7;46.5
78704;SHT31;68034;51.966;5.676;2023-05-29T09:42:18;19.8;46.0
78704;SHT31;68034;51.966;5.676;2023-05-29T09:44:49;19.9;45.6
78704;SHT31;68034;51.966;5.676;2023-05-29T09:47:20;20.0;44.7
78704;SHT31;68034;51.966;5.676;2023-05-29T09:49:50;20.0;44.8
78704;SHT31;68034;51.966;5.676;2023-05-29T09:52:21;20.1;45.1
78704;SHT31;68034;51.966;5.676;2023-05-29T09:54:50;20.2;44.2
78704;SHT31;68034;51.966;5.676;2023-05-29T09:57:21;20.3;43.9
78704;SHT31;68034;51.966;5.676;2023-05-29T09:59:55;20.4;41.7
78704;SHT31;68034;51.966;5.676;2023-05-29T10:02:23;20.5;42.3
78704;SHT31;68034;51.966;5.676;2023-05-29T10:04:54;20.5;43.5
78704;SHT31;68034;51.966;5.676;2023-05-29T10:07:27;20.6;42.6
78704;SHT31;68034;51.966;5.676;2023-05-29T10:10:02;20.6;43.2
78704;SHT31;68034;51.966;5.676;2023-05-29T10:12:36;20.7;41.2
78704;SHT31;68034;51.966;5.676;2023-05-29T10:15:12;20.7;42.1
78704;SHT31;68034;51.966;5.676;2023-05-29T10:17:47;20.8;42.1
78704;SHT31;68034;51.966;5.676;2023-05-29T10:20:20;20.8;40.8
78704;SHT31;68034;51.966;5.676;2023-05-29T10:22:50;20.9;41.9
78704;SHT31;68034;51.966;5.676;2023-05-29T10:25:20;20.9;41.5
78704;SHT31;68034;51.966;5.676;2023-05-29T10:27:50;21.0;39.7
78704;SHT31;68034;51.966;5.676;2023-05-29T10:30:28;21.1;39.8
78704;SHT31;68034;51.966;5.676;2023-05-29T10:33:19;21.1;40.7
78704;SHT31;68034;51.966;5.676;2023-05-29T10:36:03;21.2;39.2
78704;SHT31;68034;51.966;5.676;2023-05-29T10:38:31;21.2;39.3
78704;SHT31;68034;51.966;5.676;2023-05-29T10:41:32;21.3;40.5
78704;SHT31;68034;51.966;5.676;2023-05-29T10:47:04;21.3;40.2
78704;SHT31;68034;51.966;5.676;2023-05-29T10:49:35;21.4;37.0
78704;SHT31;68034;51.966;5.676;2023-05-29T10:52:06;21.4;37.9
78704;SHT31;68034;51.966;5.676;2023-05-29T10:54:53;21.4;38.5
78704;SHT31;68034;51.966;5.676;2023-05-29T10:57:23;21.5;39.2
78704;SHT31;68034;51.966;5.676;2023-05-29T11:00:03;21.5;40.0
78704;SHT31;68034;51.966;5.676;2023-05-29T11:02:40;21.6;36.7
78704;SHT31;68034;51.966;5.676;2023-05-29T11:05:20;21.6;37.4
78704;SHT31;68034;51.966;5.676;2023-05-29T11:07:56;21.7;39.0
78704;SHT31;68034;51.966;5.676;2023-05-29T11:10:55;21.8;38.3
78704;SHT31;68034;51.966;5.676;2023-05-29T11:13:26;21.9;37.7
78704;SHT31;68034;51.966;5.676;2023-05-29T11:16:19;21.9;39.1
78704;SHT31;68034;51.966;5.676;2023-05-29T11:18:49;22.0;39.9
78704;SHT31;68034;51.966;5.676;2023-05-29T11:21:30;22.0;37.7
78704;SHT31;68034;51.966;5.676;2023-05-29T11:24:04;22.1;38.4
78704;SHT31;68034;51.966;5.676;2023-05-29T11:26:36;22.1;36.4
78704;SHT31;68034;51.966;5.676;2023-05-29T11:29:08;22.1;37.6
78704;SHT31;68034;51.966;5.676;2023-05-29T11:31:40;22.2;37.7
78704;SHT31;68034;51.966;5.676;2023-05-29T11:34:13;22.2;37.0
78704;SHT31;68034;51.966;5.676;2023-05-29T11:36:44;22.3;37.4
78704;SHT31;68034;51.966;5.676;2023-05-29T11:39:15;22.3;37.4
78704;SHT31;68034;51.966;5.676;2023-05-29T11:41:44;22.4;36.8
78704;SHT31;68034;51.966;5.676;2023-05-29T11:44:14;22.5;36.9
78704;SHT31;68034;51.966;5.676;2023-05-29T11:46:42;22.5;35.2
78704;SHT31;68034;51.966;5.676;2023-05-29T11:49:11;22.6;33.3
78704;SHT31;68034;51.966;5.676;2023-05-29T11:51:41;22.6;33.2
78704;SHT31;68034;51.966;5.676;2023-05-29T11:54:13;22.6;35.4
78704;SHT31;68034;51.966;5.676;2023-05-29T11:56:42;22.7;36.0
78704;SHT31;68034;51.966;5.676;2023-05-29T11:59:11;22.7;35.6
78704;SHT31;68034;51.966;5.676;2023-05-29T12:01:42;22.8;36.2
78704;SHT31;68034;51.966;5.676;2023-05-29T12:04:17;22.8;35.0
78704;SHT31;68034;51.966;5.676;2023-05-29T12:06:45;22.9;35.1
78704;SHT31;68034;51.966;5.676;2023-05-29T12:09:25;22.9;34.8
78704;SHT31;68034;51.966;5.676;2023-05-29T12:12:05;23.0;34.3
78704;SHT31;68034;51.966;5.676;2023-05-29T12:14:35;23.1;36.5
78704;SHT31;68034;51.966;5.676;2023-05-29T12:17:04;23.1;36.4
78704;SHT31;68034;51.966;5.676;2023-05-29T12:19:35;23.2;34.2
78704;SHT31;68034;51.966;5.676;2023-05-29T12:22:03;23.3;34.6
78704;SHT31;68034;51.966;5.676;2023-05-29T12:24:34;23.3;35.6
78704;SHT31;68034;51.966;5.676;2023-05-29T12:27:05;23.3;35.3
78704;SHT31;68034;51.966;5.676;2023-05-29T12:29:35;23.4;35.3
78704;SHT31;68034;51.966;5.676;2023-05-29T12:32:09;23.4;33.8
78704;SHT31;68034;51.966;5.676;2023-05-29T12:34:37;23.4;34.4
78704;SHT31;68034;51.966;5.676;2023-05-29T12:37:10;23.5;33.7
78704;SHT31;68034;51.966;5.676;2023-05-29T12:39:41;23.5;33.1
78704;SHT31;68034;51.966;5.676;2023-05-29T12:42:11;23.5;33.8
78704;SHT31;68034;51.966;5.676;2023-05-29T12:44:42;23.5;34.2
78704;SHT31;68034;51.966;5.676;2023-05-29T12:47:14;23.5;33.0
78704;SHT31;68034;51.966;5.676;2023-05-29T12:49:45;23.6;33.2
78704;SHT31;68034;51.966;5.676;2023-05-29T12:52:13;23.6;33.7
78704;SHT31;68034;51.966;5.676;2023-05-29T12:54:42;23.7;33.0
78704;SHT31;68034;51.966;5.676;2023-05-29T12:57:11;23.8;32.4
78704;SHT31;68034;51.966;5.676;2023-05-29T12:59:40;23.8;32.8
78704;SHT31;68034;51.966;5.676;2023-05-29T13:02:09;23.9;33.5
78704;SHT31;68034;51.966;5.676;2023-05-29T13:04:37;23.9;33.5
78704;SHT31;68034;51.966;5.676;2023-05-29T13:07:08;24.0;32.1
78704;SHT31;68034;51.966;5.676;2023-05-29T13:09:39;24.2;30.4
78704;SHT31;68034;51.966;5.676;2023-05-29T13:12:08;24.3;31.4
78704;SHT31;68034;51.966;5.676;2023-05-29T13:14:37;24.4;32.3
78704;SHT31;68034;51.966;5.676;2023-05-29T13:17:07;24.5;32.1
78704;SHT31;68034;51.966;5.676;2023-05-29T13:19:36;24.7;31.9
78704;SHT31;68034;51.966;5.676;2023-05-29T13:22:04;24.9;33.3
78704;SHT31;68034;51.966;5.676;2023-05-29T13:24:33;25.1;32.4
78704;SHT31;68034;51.966;5.676;2023-05-29T13:27:03;25.2;30.6
78704;SHT31;68034;51.966;5.676;2023-05-29T13:29:34;25.4;30.4
78704;SHT31;68034;51.966;5.676;2023-05-29T13:32:03;25.5;29.0
78704;SHT31;68034;51.966;5.676;2023-05-29T13:34:31;25.6;29.1
78704;SHT31;68034;51.966;5.676;2023-05-29T13:37:03;25.7;28.7
78704;SHT31;68034;51.966;5.676;2023-05-29T13:39:31;25.8;30.3
78704;SHT31;68034;51.966;5.676;2023-05-29T13:42:00;25.9;28.1
78704;SHT31;68034;51.966;5.676;2023-05-29T13:44:29;26.0;29.2
78704;SHT31;68034;51.966;5.676;2023-05-29T13:46:58;26.0;28.1
78704;SHT31;68034;51.966;5.676;2023-05-29T13:49:27;26.0;28.4
78704;SHT31;68034;51.966;5.676;2023-05-29T13:51:56;26.0;28.4
78704;SHT31;68034;51.966;5.676;2023-05-29T13:54:25;26.0;29.2
78704;SHT31;68034;51.966;5.676;2023-05-29T13:56:54;26.0;28.3
78704;SHT31;68034;51.966;5.676;2023-05-29T13:59:22;25.9;28.2
78704;SHT31;68034;51.966;5.676;2023-05-29T14:01:51;25.8;28.8
78704;SHT31;68034;51.966;5.676;2023-05-29T14:04:20;25.8;27.9
78704;SHT31;68034;51.966;5.676;2023-05-29T14:06:49;25.7;27.5
78704;SHT31;68034;51.966;5.676;2023-05-29T14:09:18;25.7;28.1
78704;SHT31;68034;51.966;5.676;2023-05-29T14:11:53;25.7;28.5
78704;SHT31;68034;51.966;5.676;2023-05-29T14:14:23;25.7;28.9
78704;SHT31;68034;51.966;5.676;2023-05-29T14:16:53;25.7;29.8
78704;SHT31;68034;51.966;5.676;2023-05-29T14:19:23;25.6;28.7
78704;SHT31;68034;51.966;5.676;2023-05-29T14:21:52;25.6;28.2
78704;SHT31;68034;51.966;5.676;2023-05-29T14:24:20;25.5;27.4
78704;SHT31;68034;51.966;5.676;2023-05-29T14:26:53;25.4;28.1
78704;SHT31;68034;51.966;5.676;2023-05-29T14:29:24;25.3;30.5
78704;SHT31;68034;51.966;5.676;2023-05-29T14:31:53;25.3;29.6
78704;SHT31;68034;51.966;5.676;2023-05-29T14:34:22;25.2;28.3
78704;SHT31;68034;51.966;5.676;2023-05-29T14:36:50;25.1;29.4
78704;SHT31;68034;51.966;5.676;2023-05-29T14:39:21;25.1;29.8
78704;SHT31;68034;51.966;5.676;2023-05-29T14:41:50;25.0;29.6
78704;SHT31;68034;51.966;5.676;2023-05-29T14:44:19;25.0;30.9
78704;SHT31;68034;51.966;5.676;2023-05-29T14:46:47;25.0;29.6
78704;SHT31;68034;51.966;5.676;2023-05-29T14:49:16;25.0;29.5
78704;SHT31;68034;51.966;5.676;2023-05-29T14:51:46;25.0;29.9
78704;SHT31;68034;51.966;5.676;2023-05-29T14:54:14;25.0;31.2
78704;SHT31;68034;51.966;5.676;2023-05-29T14:56:43;24.9;30.1
78704;SHT31;68034;51.966;5.676;2023-05-29T14:59:12;24.9;30.7
78704;SHT31;68034;51.966;5.676;2023-05-29T15:01:41;24.9;29.6
78704;SHT31;68034;51.966;5.676;2023-05-29T15:04:10;24.9;29.6
78704;SHT31;68034;51.966;5.676;2023-05-29T15:06:38;24.8;30.1
78704;SHT31;68034;51.966;5.676;2023-05-29T15:09:07;24.8;29.8
78704;SHT31;68034;51.966;5.676;2023-05-29T15:11:37;24.7;30.7
78704;SHT31;68034;51.966;5.676;2023-05-29T15:14:06;24.7;30.0
78704;SHT31;68034;51.966;5.676;2023-05-29T15:16:34;24.6;28.5
78704;SHT31;68034;51.966;5.676;2023-05-29T15:19:03;24.6;28.5
78704;SHT31;68034;51.966;5.676;2023-05-29T15:21:33;24.5;28.3
78704;SHT31;68034;51.966;5.676;2023-05-29T15:24:01;24.4;28.3
78704;SHT31;68034;51.966;5.676;2023-05-29T15:26:32;24.4;28.9
78704;SHT31;68034;51.966;5.676;2023-05-29T15:29:01;24.3;30.3
78704;SHT31;68034;51.966;5.676;2023-05-29T15:31:30;24.3;30.4
78704;SHT31;68034;51.966;5.676;2023-05-29T15:33:58;24.2;30.4
78704;SHT31;68034;51.966;5.676;2023-05-29T15:36:27;24.2;31.5
78704;SHT31;68034;51.966;5.676;2023-05-29T15:38:56;24.1;30.5
78704;SHT31;68034;51.966;5.676;2023-05-29T15:41:25;24.0;30.3
78704;SHT31;68034;51.966;5.676;2023-05-29T15:43:55;24.0;30.3
78704;SHT31;68034;51.966;5.676;2023-05-29T15:46:26;24.0;29.7
78704;SHT31;68034;51.966;5.676;2023-05-29T15:48:55;23.9;29.4
78704;SHT31;68034;51.966;5.676;2023-05-29T15:51:24;23.8;29.6
78704;SHT31;68034;51.966;5.676;2023-05-29T15:53:53;23.8;31.7
78704;SHT31;68034;51.966;5.676;2023-05-29T15:56:23;23.7;32.2
78704;SHT31;68034;51.966;5.676;2023-05-29T15:58:54;23.7;32.2
78704;SHT31;68034;51.966;5.676;2023-05-29T16:01:23;23.6;31.0
78704;SHT31;68034;51.966;5.676;2023-05-29T16:03:52;23.6;30.5
78704;SHT31;68034;51.966;5.676;2023-05-29T16:06:21;23.5;30.3
78704;SHT31;68034;51.966;5.676;2023-05-29T16:08:52;23.5;31.9
78704;SHT31;68034;51.966;5.676;2023-05-29T16:11:21;23.4;30.4
78704;SHT31;68034;51.966;5.676;2023-05-29T16:13:49;23.4;30.1
78704;SHT31;68034;51.966;5.676;2023-05-29T16:16:18;23.4;31.1
78704;SHT31;68034;51.966;5.676;2023-05-29T16:18:47;23.4;32.2
78704;SHT31;68034;51.966;5.676;2023-05-29T16:21:16;23.3;32.7
78704;SHT31;68034;51.966;5.676;2023-05-29T16:23:45;23.3;32.3
78704;SHT31;68034;51.966;5.676;2023-05-29T16:26:14;23.3;32.5
78704;SHT31;68034;51.966;5.676;2023-05-29T16:28:42;23.2;32.8
78704;SHT31;68034;51.966;5.676;2023-05-29T16:31:11;23.2;33.7
78704;SHT31;68034;51.966;5.676;2023-05-29T16:33:39;23.1;31.8
78704;SHT31;68034;51.966;5.676;2023-05-29T16:36:08;23.1;32.2
78704;SHT31;68034;51.966;5.676;2023-05-29T16:38:37;23.1;31.7
78704;SHT31;68034;51.966;5.676;2023-05-29T16:41:05;23.0;31.9
78704;SHT31;68034;51.966;5.676;2023-05-29T16:43:35;23.0;32.4
78704;SHT31;68034;51.966;5.676;2023-05-29T16:46:04;22.9;33.2
78704;SHT31;68034;51.966;5.676;2023-05-29T16:48:32;22.9;32.7
78704;SHT31;68034;51.966;5.676;2023-05-29T16:51:05;22.9;31.2